Terminal Aerodrome Forecast
Issued by NWS Pittsburgh, PA

Current Version | Previous Version | Graphics & Text | Print | Product List | Glossary On
Versions: 1 2 3 4 5 6 7 8 9 10 11 12 13 14 15 16 17 18 19 20 21 22 23 24 25 26 27 28 29
000
FTUS41 KPBZ 030855 AAA
TAFPIT
TAF AMD
KPIT 030855Z 0309/0412 VRB03KT P6SM SCT070
     FM031400 09005KT P6SM BKN050
     FM032000 11005KT P6SM -SHRA OVC035
     FM040000 05005KT 5SM -SHRA BR OVC020=

USA.gov is the U.S. government's official web portal to all federal, state and local government web resources and services.